Time;durP1;ratioP1;P1;durP2;ratioP2;P2;SDS_P1;SDS_P2;PMS_P1;PMS_P2;Temp;Humidity;BMP_temperature;BMP_pressure;BME280_temperature;BME280_humidity;BME280_pressure;Samples;Min_cycle;Max_cycle;Signal;HPM_P1;HPM_P2
2022/06/13 00:01:19;;;;;;;23.25;5.22;;;16.70;99.90;;;;;;5072005;28;20016;-73
2022/06/13 00:03:45;;;;;;;19.13;5.57;;;16.70;99.90;;;;;;5054097;28;20025;-73
2022/06/13 00:06:10;;;;;;;29.00;6.03;;;16.70;99.90;;;;;;5071036;28;20133;-74
2022/06/13 00:08:37;;;;;;;22.58;6.05;;;16.70;99.90;;;;;;5072033;28;20488;-73
2022/06/13 00:11:06;;;;;;;28.60;5.47;;;16.70;99.90;;;;;;5071434;28;20032;-73
2022/06/13 00:13:32;;;;;;;23.75;5.93;;;16.70;99.90;;;;;;5071448;28;20024;-74
2022/06/13 00:15:57;;;;;;;20.33;5.70;;;16.70;99.90;;;;;;5071649;28;20035;-73
2022/06/13 00:18:24;;;;;;;25.05;6.00;;;16.70;99.90;;;;;;5071488;28;20028;-72
2022/06/13 00:20:50;;;;;;;23.95;5.82;;;16.70;99.90;;;;;;5071537;28;20021;-72
2022/06/13 00:23:15;;;;;;;21.92;6.05;;;16.60;99.90;;;;;;5071333;28;20411;-72
2022/06/13 00:25:41;;;;;;;22.08;6.07;;;16.70;99.90;;;;;;5072099;28;20029;-72
2022/06/13 00:28:07;;;;;;;26.05;6.10;;;16.70;99.90;;;;;;5071388;28;20051;-74
2022/06/13 00:30:32;;;;;;;21.45;5.60;;;16.70;99.90;;;;;;5050944;28;20122;-72
2022/06/13 00:32:58;;;;;;;21.80;5.72;;;16.70;99.90;;;;;;5071171;28;20391;-73
2022/06/13 00:35:23;;;;;;;23.27;5.90;;;16.70;99.90;;;;;;5071013;28;20048;-72
2022/06/13 00:37:49;;;;;;;24.77;5.40;;;16.70;99.90;;;;;;5071164;28;20025;-73
2022/06/13 00:40:15;;;;;;;26.08;5.80;;;16.70;99.90;;;;;;5071279;28;20024;-73
2022/06/13 00:42:41;;;;;;;25.33;6.15;;;16.70;99.90;;;;;;5070910;28;20068;-73
2022/06/13 00:45:31;;;;;;;30.27;6.75;;;16.60;99.90;;;;;;5071217;28;20044;-73
2022/06/13 00:47:58;;;;;;;24.80;6.38;;;16.60;99.90;;;;;;5070062;28;20040;-72
2022/06/13 00:50:28;;;;;;;23.77;6.38;;;16.60;99.90;;;;;;5070682;28;20032;-74
2022/06/13 00:53:09;;;;;;;29.35;6.72;;;16.60;99.90;;;;;;5068800;28;20032;-72
2022/06/13 00:55:40;;;;;;;28.35;7.28;;;16.60;99.90;;;;;;5070596;28;20029;-73
2022/06/13 00:58:07;;;;;;;23.45;5.97;;;16.60;99.90;;;;;;5070075;28;20082;-73
2022/06/13 01:00:35;;;;;;;30.42;7.38;;;16.60;99.90;;;;;;5070805;28;20025;-72
2022/06/13 01:03:02;;;;;;;36.53;7.35;;;16.60;99.90;;;;;;5070854;28;20029;-73
2022/06/13 01:05:31;;;;;;;25.25;7.18;;;16.60;99.90;;;;;;5071208;28;20045;-72
2022/06/13 01:08:00;;;;;;;34.30;7.57;;;16.60;99.90;;;;;;5052475;28;20043;-73
2022/06/13 01:13:11;;;;;;;26.58;7.07;;;16.60;99.90;;;;;;5070256;28;20047;-72
2022/06/13 01:16:00;;;;;;;30.95;7.40;;;16.60;99.90;;;;;;5070392;28;20028;-73
2022/06/13 01:18:41;;;;;;;30.83;7.07;;;16.60;99.90;;;;;;5070236;28;20031;-73
2022/06/13 01:21:40;;;;;;;29.30;7.55;;;16.60;99.90;;;;;;5070250;28;20029;-73
2022/06/13 01:24:28;;;;;;;32.10;7.20;;;16.60;99.90;;;;;;5070477;28;20093;-73
2022/06/13 01:27:02;;;;;;;30.13;7.55;;;16.60;99.90;;;;;;5070403;28;20545;-72
2022/06/13 01:29:52;;;;;;;31.60;8.30;;;16.60;99.90;;;;;;5070230;28;20349;-72
2022/06/13 01:32:51;;;;;;;29.27;7.40;;;16.60;99.90;;;;;;5070308;28;20539;-73
2022/06/13 01:35:48;;;;;;;31.20;7.63;;;16.60;99.90;;;;;;5069000;28;20089;-73
2022/06/13 01:38:19;;;;;;;34.95;8.30;;;16.60;99.90;;;;;;5068908;28;20027;-72
2022/06/13 01:41:07;;;;;;;32.53;7.82;;;16.50;99.90;;;;;;5052051;28;20059;-72
2022/06/13 01:44:06;;;;;;;40.97;8.05;;;16.60;99.90;;;;;;5068348;28;20035;-72
2022/06/13 01:46:56;;;;;;;30.35;7.90;;;16.50;99.90;;;;;;5035989;28;20029;-72
2022/06/13 01:49:47;;;;;;;32.97;7.93;;;16.50;99.90;;;;;;5069310;28;20028;-72
2022/06/13 01:52:40;;;;;;;26.98;7.43;;;16.50;99.90;;;;;;5069764;28;20182;-72
2022/06/13 01:55:14;;;;;;;35.55;8.35;;;16.50;99.90;;;;;;5069701;28;20043;-72
2022/06/13 01:57:49;;;;;;;30.15;8.25;;;16.50;99.90;;;;;;5069254;28;20108;-72
2022/06/13 02:00:29;;;;;;;32.28;8.23;;;16.50;99.90;;;;;;5051254;28;20109;-73
2022/06/13 02:03:19;;;;;;;33.20;7.90;;;16.40;99.90;;;;;;5069011;28;20070;-72
2022/06/13 02:05:54;;;;;;;35.63;8.02;;;16.40;99.90;;;;;;5069114;28;20043;-72
2022/06/13 02:08:30;;;;;;;29.55;8.00;;;16.40;99.90;;;;;;5050682;28;20455;-73
2022/06/13 02:11:01;;;;;;;32.67;7.00;;;16.40;99.90;;;;;;5068072;28;20037;-73
2022/06/13 02:14:05;;;;;;;37.30;7.35;;;16.30;99.90;;;;;;5069261;28;20079;-73
2022/06/13 02:16:39;;;;;;;22.67;5.93;;;16.40;99.90;;;;;;5025382;28;20053;-73
2022/06/13 02:19:37;;;;;;;26.60;5.97;;;16.30;99.90;;;;;;5026344;28;20132;-72
2022/06/13 02:22:18;;;;;;;25.20;6.10;;;16.30;99.90;;;;;;5024778;28;20042;-73
2022/06/13 02:24:52;;;;;;;25.13;5.93;;;16.30;99.90;;;;;;5026333;28;20465;-73
2022/06/13 02:27:22;;;;;;;29.17;5.75;;;16.30;99.90;;;;;;5026832;28;20156;-72
2022/06/13 02:29:54;;;;;;;18.83;5.05;;;16.20;99.90;;;;;;5022713;28;20025;-73
2022/06/13 02:32:23;;;;;;;18.67;4.35;;;16.20;99.90;;;;;;5026331;28;20124;-73
2022/06/13 02:34:55;;;;;;;15.73;4.50;;;16.20;99.90;;;;;;5025504;28;20029;-72
2022/06/13 02:37:27;;;;;;;16.45;4.32;;;16.20;99.90;;;;;;5024204;28;20045;-73
2022/06/13 02:40:02;;;;;;;15.25;4.32;;;16.10;99.90;;;;;;5023677;28;20032;-73
2022/06/13 02:42:35;;;;;;;15.27;4.15;;;16.20;99.90;;;;;;5021600;28;20032;-72
2022/06/13 02:45:30;;;;;;;14.35;4.47;;;16.10;99.90;;;;;;5025547;28;20503;-73
2022/06/13 02:48:18;;;;;;;15.63;4.20;;;16.10;99.90;;;;;;5025847;28;20044;-72
2022/06/13 02:50:55;;;;;;;15.70;3.83;;;16.10;99.90;;;;;;5049838;28;20040;-72
2022/06/13 02:53:32;;;;;;;14.85;3.53;;;16.10;99.90;;;;;;5069583;28;20331;-72
2022/06/13 02:56:34;;;;;;;13.38;3.35;;;16.10;99.90;;;;;;5051067;28;20103;-72
2022/06/13 02:59:07;;;;;;;12.65;3.47;;;16.10;99.90;;;;;;5024279;28;20059;-72
2022/06/13 03:01:42;;;;;;;10.75;3.47;;;16.10;99.90;;;;;;5025245;28;20552;-73
2022/06/13 03:04:30;;;;;;;14.23;3.05;;;16.10;99.90;;;;;;5028557;28;20034;-73
2022/06/13 03:07:07;;;;;;;15.63;3.33;;;16.10;99.90;;;;;;5027766;28;20080;-72
2022/06/13 03:09:46;;;;;;;14.32;2.90;;;16.10;99.90;;;;;;5026163;28;20033;-73
2022/06/13 03:12:31;;;;;;;12.82;3.03;;;16.10;99.90;;;;;;5011505;28;20040;-72
2022/06/13 03:15:35;;;;;;;13.05;3.55;;;16.10;99.90;;;;;;5020785;28;20033;-73
2022/06/13 03:18:26;;;;;;;10.93;3.00;;;16.10;99.90;;;;;;5019377;28;20037;-73
2022/06/13 03:21:16;;;;;;;11.63;3.28;;;16.10;99.90;;;;;;5031588;28;20097;-73
2022/06/13 03:23:48;;;;;;;17.15;3.80;;;16.10;99.90;;;;;;5024764;28;20382;-72
2022/06/13 03:26:37;;;;;;;10.93;3.28;;;16.10;99.90;;;;;;5033411;28;20390;-72
2022/06/13 03:29:13;;;;;;;12.70;3.63;;;16.10;99.90;;;;;;5033558;28;20037;-72
2022/06/13 03:31:43;;;;;;;11.45;3.28;;;16.10;99.90;;;;;;5032945;28;20132;-73
2022/06/13 03:34:16;;;;;;;13.95;3.28;;;16.10;99.90;;;;;;5043510;28;20037;-73
2022/06/13 03:36:48;;;;;;;11.20;3.17;;;16.10;99.90;;;;;;5073807;28;20117;-72
2022/06/13 03:39:20;;;;;;;12.45;2.90;;;16.10;99.90;;;;;;5073481;28;20376;-72
2022/06/13 03:42:01;;;;;;;13.35;3.28;;;16.10;99.90;;;;;;5073358;28;20117;-73
2022/06/13 03:44:33;;;;;;;9.00;2.78;;;16.10;99.90;;;;;;5072208;28;20036;-73
2022/06/13 03:47:14;;;;;;;10.00;2.65;;;16.10;99.90;;;;;;5072719;28;20096;-72
2022/06/13 03:49:46;;;;;;;9.98;2.75;;;16.10;99.90;;;;;;5070883;28;20032;-72
2022/06/13 03:52:14;;;;;;;12.32;3.05;;;16.10;99.90;;;;;;5072927;28;20564;-72
2022/06/13 03:54:53;;;;;;;13.35;2.83;;;16.10;99.90;;;;;;5072211;28;20025;-72
2022/06/13 03:57:30;;;;;;;10.52;2.92;;;16.10;99.90;;;;;;5072015;28;20020;-72
2022/06/13 04:00:26;;;;;;;9.27;2.60;;;16.10;99.90;;;;;;5072268;28;20422;-73
2022/06/13 04:02:53;;;;;;;12.55;2.92;;;16.10;99.90;;;;;;5070485;28;20025;-72
2022/06/13 04:05:59;;;;;;;12.32;2.55;;;16.00;99.90;;;;;;5072524;28;20025;-73
2022/06/13 04:08:27;;;;;;;10.52;2.80;;;16.00;99.90;;;;;;5054065;28;20380;-73
2022/06/13 04:11:13;;;;;;;9.13;2.40;;;16.00;99.90;;;;;;5072233;28;20506;-72
2022/06/13 04:14:12;;;;;;;10.60;2.50;;;16.00;99.90;;;;;;5072655;28;20098;-72
2022/06/13 04:16:47;;;;;;;5.93;2.00;;;16.00;99.90;;;;;;5070867;28;20363;-72
2022/06/13 04:19:27;;;;;;;9.57;2.50;;;16.00;99.90;;;;;;5072518;28;20044;-73
2022/06/13 04:22:11;;;;;;;9.50;2.45;;;16.00;99.90;;;;;;5072463;28;20071;-74
2022/06/13 04:24:52;;;;;;;12.65;2.10;;;16.00;99.90;;;;;;5072886;28;20495;-73
2022/06/13 04:27:41;;;;;;;11.27;2.30;;;16.00;99.90;;;;;;5073902;28;20028;-73
2022/06/13 04:30:10;;;;;;;7.43;2.00;;;16.00;99.90;;;;;;5070592;28;20037;-73
2022/06/13 04:33:02;;;;;;;10.63;2.45;;;16.00;99.90;;;;;;5072343;28;20028;-72
2022/06/13 04:35:31;;;;;;;7.72;1.90;;;16.00;99.90;;;;;;5044876;28;20087;-72
2022/06/13 04:38:00;;;;;;;10.15;1.80;;;16.00;99.90;;;;;;5072019;28;20079;-73
2022/06/13 04:40:28;;;;;;;7.43;2.20;;;16.00;99.90;;;;;;5071600;28;20063;-73
2022/06/13 04:42:55;;;;;;;8.45;2.10;;;16.00;99.90;;;;;;5071328;28;20047;-73
2022/06/13 04:45:31;;;;;;;10.65;2.38;;;16.00;99.90;;;;;;5071624;28;20430;-73
2022/06/13 04:47:58;;;;;;;8.43;2.47;;;16.00;99.90;;;;;;5065472;28;20032;-73
2022/06/13 04:50:34;;;;;;;9.18;2.60;;;16.00;99.90;;;;;;5065035;28;20060;-73
2022/06/13 04:53:01;;;;;;;12.32;2.58;;;16.00;99.90;;;;;;5060721;28;20393;-78
2022/06/13 04:55:40;;;;;;;12.05;2.58;;;16.00;99.90;;;;;;5060726;28;20012;-79
2022/06/13 04:58:29;;;;;;;12.75;2.33;;;16.00;99.90;;;;;;5069052;28;20115;-79
2022/06/13 05:01:20;;;;;;;9.25;2.47;;;16.00;99.90;;;;;;5070069;28;20029;-78
2022/06/13 05:03:47;;;;;;;13.32;2.70;;;16.00;99.90;;;;;;5062940;28;20468;-79
2022/06/13 05:06:37;;;;;;;9.27;2.50;;;16.00;99.90;;;;;;5066617;28;20031;-79
2022/06/13 05:09:15;;;;;;;10.18;2.35;;;16.00;99.90;;;;;;5066873;28;20017;-78
2022/06/13 05:11:46;;;;;;;8.60;2.08;;;15.90;99.90;;;;;;5068867;28;20033;-79
2022/06/13 05:14:18;;;;;;;7.68;2.00;;;15.90;99.90;;;;;;5053486;28;20650;-78
2022/06/13 05:17:07;;;;;;;10.02;2.28;;;15.90;99.90;;;;;;5072033;28;20380;-80
2022/06/13 05:19:54;;;;;;;12.18;2.20;;;15.80;99.90;;;;;;5066209;28;20033;-78
2022/06/13 05:22:44;;;;;;;8.93;2.20;;;15.80;99.90;;;;;;5039441;28;20041;-80
2022/06/13 05:25:23;;;;;;;9.43;2.08;;;15.80;99.90;;;;;;5070379;28;20063;-79
2022/06/13 05:27:49;;;;;;;7.20;1.80;;;15.70;99.90;;;;;;5068078;28;20536;-80
2022/06/13 05:30:17;;;;;;;9.95;2.10;;;15.70;99.90;;;;;;5058595;28;20028;-81
2022/06/13 05:32:43;;;;;;;8.10;1.92;;;15.70;99.90;;;;;;5067520;28;20051;-79
2022/06/13 05:35:29;;;;;;;14.43;2.63;;;15.80;99.90;;;;;;5068223;28;20016;-80
2022/06/13 05:37:56;;;;;;;;;;;15.80;99.90;;;;;;5068388;28;20063;-80
2022/06/13 05:40:23;;;;;;;10.48;2.00;;;15.80;99.90;;;;;;5072254;28;19915;-81
2022/06/13 05:42:49;;;;;;;13.30;2.20;;;15.80;99.90;;;;;;5048247;28;20561;-80
2022/06/13 05:45:17;;;;;;;9.55;1.60;;;15.90;99.90;;;;;;5068881;28;20021;-79
2022/06/13 05:47:45;;;;;;;7.88;1.90;;;15.90;99.90;;;;;;5059580;28;20115;-80
2022/06/13 05:50:23;;;;;;;12.90;1.85;;;15.90;99.90;;;;;;5072501;28;20021;-81
2022/06/13 05:52:50;;;;;;;9.43;1.80;;;15.90;99.90;;;;;;5060490;28;20031;-81
2022/06/13 05:55:15;;;;;;;11.48;2.10;;;15.90;99.90;;;;;;5072694;28;20059;-80
2022/06/13 05:57:41;;;;;;;11.60;2.22;;;16.00;99.90;;;;;;5051921;28;20491;-81
2022/06/13 06:00:14;;;;;;;14.15;1.90;;;16.00;99.90;;;;;;5069742;28;20029;-79
2022/06/13 06:02:40;;;;;;;11.18;2.05;;;16.00;99.90;;;;;;5062735;28;20656;-81
2022/06/13 06:05:06;;;;;;;12.73;2.22;;;15.90;99.90;;;;;;5064720;28;20043;-82
2022/06/13 06:07:33;;;;;;;12.55;1.90;;;16.00;99.90;;;;;;5060411;28;20032;-80
2022/06/13 06:10:00;;;;;;;10.95;2.42;;;16.00;99.90;;;;;;5061671;28;20052;-78
2022/06/13 06:12:25;;;;;;;7.82;1.85;;;16.10;99.90;;;;;;5065623;28;20359;-80
2022/06/13 06:14:51;;;;;;;8.93;1.92;;;16.10;99.90;;;;;;5064005;28;20025;-81
2022/06/13 06:17:17;;;;;;;9.48;2.10;;;16.10;99.90;;;;;;5069849;28;20032;-81
2022/06/13 06:19:42;;;;;;;10.23;2.20;;;16.10;99.90;;;;;;5051856;28;20077;-82
2022/06/13 06:22:08;;;;;;;13.02;1.90;;;16.10;99.90;;;;;;5069202;28;20056;-81
2022/06/13 06:24:33;;;;;;;11.38;2.03;;;16.10;99.90;;;;;;5051563;28;20024;-80
2022/06/13 06:26:59;;;;;;;10.48;1.95;;;16.20;99.90;;;;;;5051106;28;20035;-81
2022/06/13 06:29:24;;;;;;;11.35;2.05;;;16.20;99.90;;;;;;5069527;28;20025;-79
2022/06/13 06:31:50;;;;;;;11.10;1.98;;;16.20;99.90;;;;;;5069631;28;20033;-81
2022/06/13 06:34:17;;;;;;;11.43;1.50;;;16.30;99.90;;;;;;5069535;28;20392;-80
2022/06/13 06:36:42;;;;;;;12.68;1.52;;;16.40;99.90;;;;;;5069048;28;20032;-80
2022/06/13 06:39:08;;;;;;;8.95;1.52;;;16.40;99.90;;;;;;5069464;28;20052;-81
2022/06/13 06:41:34;;;;;;;7.63;1.30;;;16.50;99.90;;;;;;5068299;28;20028;-81
2022/06/13 06:44:00;;;;;;;6.80;1.42;;;16.40;99.90;;;;;;5069310;28;20408;-80
2022/06/13 06:46:25;;;;;;;5.70;1.23;;;16.40;99.90;;;;;;5069438;28;20023;-80
2022/06/13 06:48:51;;;;;;;9.52;1.90;;;16.40;99.90;;;;;;5068867;28;20025;-79
2022/06/13 06:51:18;;;;;;;7.55;1.48;;;16.40;99.90;;;;;;5051641;28;20025;-80
2022/06/13 07:02:01;;;;;;;7.18;1.52;;;16.70;99.90;;;;;;5063416;28;20495;-73
2022/06/13 07:04:27;;;;;;;8.57;1.42;;;16.80;99.90;;;;;;5070239;28;20424;-73
2022/06/13 07:06:53;;;;;;;4.72;1.42;;;16.90;99.90;;;;;;5069889;28;20031;-74
2022/06/13 07:09:18;;;;;;;10.32;1.77;;;17.00;99.90;;;;;;5069813;28;20016;-74
2022/06/13 07:11:56;;;;;;;9.07;1.60;;;17.10;99.90;;;;;;5069958;28;20487;-74
2022/06/13 07:14:28;;;;;;;10.95;2.17;;;17.10;99.90;;;;;;5052063;28;20063;-75
2022/06/13 07:16:54;;;;;;;12.63;2.00;;;17.10;99.90;;;;;;5069830;28;20028;-74
2022/06/13 07:19:20;;;;;;;8.23;1.63;;;17.20;99.90;;;;;;5069940;28;20548;-74
2022/06/13 07:21:45;;;;;;;6.65;1.50;;;17.20;99.90;;;;;;5069370;28;20299;-74
2022/06/13 07:24:11;;;;;;;9.90;1.80;;;17.30;99.90;;;;;;5069741;28;20215;-74
2022/06/13 07:26:38;;;;;;;8.50;1.70;;;17.30;99.90;;;;;;5069837;28;20032;-73
2022/06/13 07:29:04;;;;;;;10.43;1.90;;;17.60;99.90;;;;;;5069578;28;20388;-73
2022/06/13 07:31:33;;;;;;;9.50;1.70;;;17.70;99.90;;;;;;5069639;28;20121;-73
2022/06/13 07:33:59;;;;;;;14.30;2.10;;;17.90;99.90;;;;;;5060445;28;20024;-73
2022/06/13 07:36:26;;;;;;;7.40;1.70;;;17.80;99.90;;;;;;5069713;28;20036;-74
2022/06/13 07:38:53;;;;;;;8.63;1.55;;;17.70;99.90;;;;;;5069482;28;20100;-73
2022/06/13 07:41:22;;;;;;;11.30;1.98;;;17.60;99.90;;;;;;5038784;28;20029;-74
2022/06/13 07:43:50;;;;;;;7.90;1.30;;;17.70;99.90;;;;;;5057019;28;20016;-73
2022/06/13 07:46:16;;;;;;;7.22;1.40;;;17.70;99.90;;;;;;5063571;28;20468;-73
2022/06/13 07:48:42;;;;;;;7.80;1.33;;;17.80;99.90;;;;;;5060236;28;20108;-73
2022/06/13 07:51:08;;;;;;;5.55;1.35;;;17.90;99.90;;;;;;5057075;28;20408;-72
2022/06/13 07:53:35;;;;;;;10.52;1.58;;;17.90;99.90;;;;;;5051178;28;20436;-72
2022/06/13 07:56:02;;;;;;;9.52;1.40;;;18.00;99.90;;;;;;5057783;28;20025;-72
2022/06/13 07:58:35;;;;;;;8.07;1.33;;;18.20;99.90;;;;;;5050719;28;20043;-72
2022/06/13 08:01:01;;;;;;;7.70;1.30;;;18.30;99.90;;;;;;5052082;28;20444;-72
2022/06/13 08:03:31;;;;;;;4.68;1.10;;;18.40;99.90;;;;;;5064177;28;20120;-71
2022/06/13 08:05:57;;;;;;;6.93;1.38;;;18.30;99.90;;;;;;5033983;28;20108;-72
2022/06/13 08:08:24;;;;;;;8.80;1.30;;;18.20;99.90;;;;;;5054846;28;20079;-73
2022/06/13 08:10:51;;;;;;;9.93;1.85;;;18.20;99.90;;;;;;5057486;28;20032;-72
2022/06/13 08:13:19;;;;;;;5.40;1.33;;;18.10;99.90;;;;;;5060508;28;20362;-72
2022/06/13 08:15:45;;;;;;;7.18;1.55;;;18.00;99.90;;;;;;5054043;28;20021;-73
2022/06/13 08:18:13;;;;;;;10.73;1.35;;;18.00;99.90;;;;;;5052946;28;20301;-72
2022/06/13 08:20:40;;;;;;;12.18;1.80;;;18.10;99.90;;;;;;5066362;28;20028;-72
2022/06/13 08:23:09;;;;;;;9.68;2.03;;;18.40;99.90;;;;;;5048992;28;20085;-72
2022/06/13 08:25:36;;;;;;;7.03;1.50;;;18.50;99.90;;;;;;5052137;28;20044;-73
2022/06/13 08:28:03;;;;;;;6.80;1.77;;;18.40;99.90;;;;;;5056640;28;20021;-72
2022/06/13 08:30:36;;;;;;;3.88;1.35;;;18.30;99.90;;;;;;5054457;28;20021;-72
2022/06/13 08:33:02;;;;;;;7.88;1.52;;;18.30;99.90;;;;;;5051960;28;20029;-72
2022/06/13 08:35:28;;;;;;;6.05;1.42;;;18.20;99.90;;;;;;5072674;28;20050;-72
2022/06/13 08:37:53;;;;;;;10.13;1.70;;;18.00;99.90;;;;;;5054235;28;20070;-72
2022/06/13 08:40:19;;;;;;;9.63;1.50;;;18.00;99.90;;;;;;5054498;28;20488;-72
2022/06/13 08:42:54;;;;;;;6.78;1.55;;;18.00;99.90;;;;;;5066918;28;20081;-73
2022/06/13 08:45:30;;;;;;;;;;;17.90;99.90;;;;;;5069062;28;20491;-72
2022/06/13 08:48:06;;;;;;;9.00;1.67;;;17.80;99.90;;;;;;5056387;28;19909;-72
2022/06/13 08:50:59;;;;;;;9.95;1.70;;;17.70;99.90;;;;;;5067758;28;20093;-72
2022/06/13 08:53:34;;;;;;;8.27;1.70;;;17.80;99.90;;;;;;5058136;28;20048;-71
2022/06/13 08:56:07;;;;;;;5.47;1.60;;;17.80;99.90;;;;;;5065314;28;20033;-72
2022/06/13 08:58:57;;;;;;;7.85;1.80;;;18.00;99.90;;;;;;5059544;28;20108;-73
2022/06/13 09:01:38;;;;;;;10.05;1.75;;;18.10;99.90;;;;;;5066895;28;20422;-72
2022/06/13 09:04:19;;;;;;;7.72;1.63;;;18.10;99.90;;;;;;5067123;28;20419;-72
2022/06/13 09:07:10;;;;;;;8.90;1.75;;;18.10;99.90;;;;;;5042322;28;20028;-72
2022/06/13 09:09:53;;;;;;;10.38;1.77;;;18.20;99.90;;;;;;5039914;28;20027;-72
2022/06/13 09:12:26;;;;;;;7.07;1.65;;;18.50;99.90;;;;;;5071699;28;20058;-73
2022/06/13 09:15:12;;;;;;;7.32;1.48;;;18.50;99.90;;;;;;5071733;28;20029;-72
2022/06/13 09:18:00;;;;;;;8.52;1.58;;;18.50;99.90;;;;;;5052638;28;20606;-72
2022/06/13 09:20:53;;;;;;;10.02;1.70;;;18.50;99.90;;;;;;5056726;28;20706;-72
2022/06/13 09:23:39;;;;;;;8.18;1.50;;;18.60;99.90;;;;;;5053091;28;20573;-72
2022/06/13 09:26:23;;;;;;;6.65;1.58;;;18.60;99.90;;;;;;5049380;28;20107;-72
2022/06/13 09:28:57;;;;;;;11.00;1.58;;;18.70;99.90;;;;;;5071433;28;20055;-72
2022/06/13 09:31:31;;;;;;;6.15;1.60;;;18.80;99.90;;;;;;5053299;28;20036;-72
2022/06/13 09:34:22;;;;;;;8.87;1.70;;;19.00;99.90;;;;;;5071478;28;20023;-73
2022/06/13 09:37:00;;;;;;;8.65;1.52;;;19.20;99.90;;;;;;5066309;28;20032;-72
2022/06/13 09:39:25;;;;;;;5.72;1.38;;;19.20;98.60;;;;;;5071293;28;20021;-72
2022/06/13 09:42:13;;;;;;;6.45;1.70;;;19.10;98.80;;;;;;5071684;28;20075;-72
2022/06/13 09:45:13;;;;;;;12.07;1.88;;;19.00;98.00;;;;;;5071346;28;20531;-72
2022/06/13 09:47:46;;;;;;;10.55;1.67;;;18.90;99.00;;;;;;5058536;28;20033;-72
2022/06/13 09:50:15;;;;;;;7.97;1.88;;;19.00;97.80;;;;;;5065296;28;20086;-72
2022/06/13 09:52:49;;;;;;;10.88;1.50;;;19.00;96.70;;;;;;5071379;28;20039;-72
2022/06/13 09:55:23;;;;;;;7.20;1.58;;;19.10;97.30;;;;;;5047300;28;20017;-72
2022/06/13 09:57:52;;;;;;;5.27;1.40;;;19.20;94.40;;;;;;5066903;28;20574;-72
2022/06/13 10:00:28;;;;;;;6.70;1.60;;;19.10;93.30;;;;;;5070368;28;20013;-72
2022/06/13 10:03:18;;;;;;;8.65;1.30;;;19.10;93.60;;;;;;5063145;28;20028;-72
2022/06/13 10:06:20;;;;;;;7.43;1.58;;;19.30;92.90;;;;;;5054007;28;20112;-72
2022/06/13 10:09:12;;;;;;;8.38;1.63;;;19.40;92.40;;;;;;5053338;28;20369;-72
2022/06/13 10:12:06;;;;;;;5.82;1.20;;;19.60;90.70;;;;;;5033275;28;20437;-72
2022/06/13 10:14:48;;;;;;;9.30;1.60;;;19.60;88.40;;;;;;5041929;28;20477;-72
2022/06/13 10:17:26;;;;;;;6.13;1.48;;;19.50;90.10;;;;;;5053039;28;20057;-72
2022/06/13 10:20:07;;;;;;;9.48;1.58;;;19.70;89.00;;;;;;5058450;28;20036;-72
2022/06/13 10:22:54;;;;;;;5.72;1.63;;;19.80;85.10;;;;;;5037711;28;20055;-72
2022/06/13 10:25:32;;;;;;;8.05;1.60;;;19.90;80.40;;;;;;5060454;28;20372;-72
2022/06/13 10:28:25;;;;;;;7.28;1.40;;;19.90;80.40;;;;;;5032600;28;20481;-72
2022/06/13 10:31:03;;;;;;;7.00;1.52;;;20.00;78.50;;;;;;5077400;28;20031;-72
2022/06/13 10:34:11;;;;;;;8.82;1.58;;;20.10;78.90;;;;;;5057147;28;20032;-72
2022/06/13 10:36:56;;;;;;;5.43;1.30;;;20.00;77.50;;;;;;5066867;28;20036;-72
2022/06/13 10:39:24;;;;;;;6.88;1.52;;;20.10;79.00;;;;;;5070367;28;20027;-72
2022/06/13 10:41:54;;;;;;;8.80;1.70;;;20.20;77.00;;;;;;5057420;28;20514;-72
2022/06/13 10:44:20;;;;;;;4.80;1.50;;;20.20;76.00;;;;;;5070236;28;20024;-72
2022/06/13 10:46:49;;;;;;;8.13;1.40;;;20.30;75.80;;;;;;5070000;28;20027;-72
2022/06/13 10:49:18;;;;;;;6.75;1.40;;;20.30;74.80;;;;;;5052101;28;20458;-72
2022/06/13 10:51:45;;;;;;;9.90;1.60;;;20.20;76.50;;;;;;5070302;28;20031;-77
2022/06/13 10:54:23;;;;;;;7.45;1.95;;;20.10;77.00;;;;;;5052046;28;20071;-72
2022/06/13 10:56:51;;;;;;;10.57;1.80;;;20.10;77.50;;;;;;5070120;28;20436;-72
2022/06/13 10:59:32;;;;;;;8.75;1.88;;;20.10;77.70;;;;;;5069813;28;20469;-71
2022/06/13 11:02:04;;;;;;;6.72;1.42;;;20.10;79.20;;;;;;5069771;28;20104;-72
2022/06/13 11:04:35;;;;;;;9.05;1.95;;;20.20;76.90;;;;;;5062319;28;20112;-73
2022/06/13 11:07:16;;;;;;;8.18;1.58;;;20.10;77.20;;;;;;5069789;28;20415;-72
2022/06/13 11:09:45;;;;;;;8.63;1.58;;;20.10;76.50;;;;;;5060444;28;20032;-72
2022/06/13 11:12:23;;;;;;;9.32;2.00;;;20.10;78.50;;;;;;5051163;28;20032;-72
2022/06/13 11:23:52;;;;;;;8.32;1.95;;;20.40;77.20;;;;;;5066303;28;20044;-80
2022/06/13 11:29:05;;;;;;;8.95;1.80;;;20.50;77.10;;;;;;5066582;28;20044;-80
2022/06/13 11:31:30;;;;;;;8.48;1.77;;;20.60;76.90;;;;;;5066448;28;20024;-80
2022/06/13 11:33:56;;;;;;;15.80;2.33;;;20.70;77.50;;;;;;5067299;28;20461;-80
2022/06/13 11:36:28;;;;;;;11.48;1.83;;;20.70;77.90;;;;;;5069167;28;20480;-79
2022/06/13 11:39:03;;;;;;;10.35;1.75;;;20.50;74.90;;;;;;5064306;28;20101;-80
2022/06/13 11:41:41;;;;;;;9.18;1.50;;;20.40;76.40;;;;;;5058185;28;20401;-80
2022/06/13 11:44:25;;;;;;;6.65;1.48;;;20.40;75.80;;;;;;5067555;28;21601;-81
2022/06/13 11:47:02;;;;;;;10.05;1.73;;;20.50;74.40;;;;;;5058260;28;20075;-80
2022/06/13 11:49:35;;;;;;;7.45;1.67;;;20.50;75.90;;;;;;5072317;28;20392;-80
2022/06/13 11:52:09;;;;;;;8.57;1.92;;;20.70;74.50;;;;;;5061315;28;20056;-80
2022/06/13 11:54:35;;;;;;;7.45;1.70;;;20.80;74.30;;;;;;5068664;28;20027;-80
2022/06/13 11:57:18;;;;;;;8.13;1.67;;;20.70;75.40;;;;;;5072866;28;20016;-79
2022/06/13 12:00:05;;;;;;;12.68;2.00;;;20.80;74.30;;;;;;5073019;28;20361;-81
2022/06/13 12:02:36;;;;;;;11.15;2.03;;;20.80;75.00;;;;;;5073225;28;20021;-80
2022/06/13 12:05:13;;;;;;;8.13;1.85;;;20.70;72.80;;;;;;5072116;28;20405;-80
2022/06/13 12:07:53;;;;;;;9.95;1.83;;;20.40;75.10;;;;;;5069594;28;20041;-81
2022/06/13 12:10:22;;;;;;;9.88;1.80;;;20.30;76.00;;;;;;5061582;28;20052;-81
2022/06/13 12:12:48;;;;;;;9.73;1.73;;;20.50;76.20;;;;;;5071107;28;20360;-80
2022/06/13 12:15:15;;;;;;;8.20;1.85;;;20.50;75.20;;;;;;5070704;28;20017;-78
2022/06/13 12:17:54;;;;;;;9.20;1.70;;;20.50;74.20;;;;;;5064426;28;20325;-79
2022/06/13 12:20:33;;;;;;;10.13;1.75;;;20.60;73.40;;;;;;5059327;28;20377;-78
2022/06/13 12:23:11;;;;;;;9.93;2.10;;;20.70;72.90;;;;;;5070672;28;20052;-80
2022/06/13 12:25:48;;;;;;;9.10;2.30;;;20.70;72.60;;;;;;5047997;28;20067;-80
2022/06/13 12:28:21;;;;;;;7.18;2.20;;;20.70;72.40;;;;;;5063613;28;20701;-80
2022/06/13 12:31:15;;;;;;;8.85;1.88;;;20.70;70.20;;;;;;5065647;28;20043;-80
2022/06/13 12:33:53;;;;;;;8.50;1.90;;;20.30;69.80;;;;;;5072374;28;20438;-81
2022/06/13 12:36:52;;;;;;;8.43;1.83;;;20.20;69.80;;;;;;5069469;28;20028;-80
2022/06/13 12:39:45;;;;;;;5.88;1.55;;;20.20;71.60;;;;;;5069575;28;20029;-81
2022/06/13 12:42:32;;;;;;;8.95;1.77;;;20.30;72.70;;;;;;5068258;28;20511;-80
2022/06/13 12:45:07;;;;;;;9.60;2.03;;;20.30;73.70;;;;;;5070713;28;20454;-80
2022/06/13 12:47:45;;;;;;;12.98;1.92;;;20.30;73.90;;;;;;5043504;28;20016;-80
2022/06/13 12:50:45;;;;;;;7.22;1.80;;;20.40;73.80;;;;;;5054289;28;20051;-79
2022/06/13 12:53:37;;;;;;;9.63;1.83;;;20.40;72.50;;;;;;5072312;28;20476;-80
2022/06/13 12:56:26;;;;;;;7.78;1.70;;;20.50;73.80;;;;;;5064057;28;20029;-81
2022/06/13 12:59:23;;;;;;;8.85;2.10;;;20.40;71.30;;;;;;5067186;28;20025;-81
2022/06/13 13:01:57;;;;;;;8.80;1.90;;;20.50;71.50;;;;;;5058266;28;20032;-81
2022/06/13 13:04:40;;;;;;;9.75;1.67;;;20.60;72.50;;;;;;5061401;28;20474;-81
2022/06/13 13:07:34;;;;;;;9.70;2.00;;;20.80;73.00;;;;;;5066027;28;20020;-81
2022/06/13 13:10:09;;;;;;;9.75;2.03;;;20.90;73.10;;;;;;5062973;28;20048;-80
2022/06/13 13:13:38;;;;;;;11.00;2.10;;;21.00;71.10;;;;;;5064551;28;20039;-80
2022/06/13 13:16:14;;;;;;;12.20;2.03;;;20.90;70.00;;;;;;4966569;28;20041;-81
2022/06/13 13:18:42;;;;;;;12.55;2.05;;;20.80;70.60;;;;;;4952484;28;20031;-80
2022/06/13 13:21:50;;;;;;;10.77;1.90;;;20.70;71.40;;;;;;4967630;28;20074;-79
2022/06/13 13:24:37;;;;;;;9.25;2.00;;;20.80;70.60;;;;;;4969062;28;20042;-80
2022/06/13 13:27:07;;;;;;;11.20;1.73;;;20.90;70.80;;;;;;4967293;28;20038;-80
2022/06/13 13:29:54;;;;;;;10.77;2.08;;;20.90;70.30;;;;;;4968499;28;20074;-81
2022/06/13 13:32:37;;;;;;;7.88;1.63;;;20.80;70.00;;;;;;4967900;28;20042;-81
2022/06/13 13:35:22;;;;;;;7.88;1.63;;;20.80;70.20;;;;;;4970760;28;20031;-81
2022/06/13 13:38:10;;;;;;;9.13;1.77;;;20.80;69.30;;;;;;4967096;28;20038;-81
2022/06/13 13:40:46;;;;;;;7.70;1.67;;;20.90;69.30;;;;;;4970089;28;20085;-80
2022/06/13 13:43:21;;;;;;;9.52;1.88;;;21.10;70.10;;;;;;4967549;28;20034;-82
2022/06/13 13:45:52;;;;;;;9.55;1.75;;;21.10;68.50;;;;;;4989464;28;20037;-82
2022/06/13 13:48:18;;;;;;;9.45;1.92;;;21.10;69.30;;;;;;5067507;28;20070;-81
2022/06/13 13:51:13;;;;;;;10.70;1.95;;;21.10;69.90;;;;;;5061715;28;20029;-80